sensor_id;sensor_type;location;lat;lon;timestamp;pressure;altitude;pressure_sealevel;temperature;humidity
49979;BME280;35869;50.990;6.962;2023-08-01T00:04:01;99659.06;;;17.54;100.00
49979;BME280;35869;50.990;6.962;2023-08-01T00:09:02;99648.69;;;17.52;100.00
49979;BME280;35869;50.990;6.962;2023-08-01T00:14:02;99633.06;;;17.51;100.00
49979;BME280;35869;50.990;6.962;2023-08-01T00:19:02;99630.03;;;17.55;100.00
49979;BME280;35869;50.990;6.962;2023-08-01T00:24:02;99634.59;;;17.53;100.00
49979;BME280;35869;50.990;6.962;2023-08-01T00:29:03;99630.19;;;17.54;100.00
49979;BME280;35869;50.990;6.962;2023-08-01T00:34:03;99616.34;;;17.52;100.00
49979;BME280;35869;50.990;6.962;2023-08-01T00:39:03;99600.44;;;17.53;100.00
49979;BME280;35869;50.990;6.962;2023-08-01T00:44:03;99610.09;;;17.53;100.00
49979;BME280;35869;50.990;6.962;2023-08-01T00:49:03;99602.38;;;17.51;100.00
49979;BME280;35869;50.990;6.962;2023-08-01T00:54:04;99538.78;;;17.48;100.00
49979;BME280;35869;50.990;6.962;2023-08-01T00:59:05;99561.03;;;17.53;100.00
49979;BME280;35869;50.990;6.962;2023-08-01T01:04:05;99550.66;;;17.52;100.00
49979;BME280;35869;50.990;6.962;2023-08-01T01:09:18;99551.78;;;17.49;100.00
49979;BME280;35869;50.990;6.962;2023-08-01T01:14:18;99520.53;;;17.46;100.00
49979;BME280;35869;50.990;6.962;2023-08-01T01:19:19;99535.88;;;17.51;100.00
49979;BME280;35869;50.990;6.962;2023-08-01T01:24:32;99535.03;;;17.50;100.00
49979;BME280;35869;50.990;6.962;2023-08-01T01:29:34;99523.03;;;17.48;100.00
49979;BME280;35869;50.990;6.962;2023-08-01T01:34:34;99529.22;;;17.47;100.00
49979;BME280;35869;50.990;6.962;2023-08-01T01:39:34;99550.22;;;17.56;100.00
49979;BME280;35869;50.990;6.962;2023-08-01T01:44:35;99536.84;;;17.50;100.00
49979;BME280;35869;50.990;6.962;2023-08-01T01:49:35;99514.03;;;17.50;100.00
49979;BME280;35869;50.990;6.962;2023-08-01T01:54:44;99508.75;;;17.50;100.00
49979;BME280;35869;50.990;6.962;2023-08-01T01:59:48;99522.88;;;17.49;100.00
49979;BME280;35869;50.990;6.962;2023-08-01T02:05:01;99523.97;;;17.47;100.00
49979;BME280;35869;50.990;6.962;2023-08-01T02:10:02;99525.09;;;17.44;100.00
49979;BME280;35869;50.990;6.962;2023-08-01T02:15:06;99519.69;;;17.46;100.00
49979;BME280;35869;50.990;6.962;2023-08-01T02:20:06;99520.25;;;17.40;100.00
49979;BME280;35869;50.990;6.962;2023-08-01T02:25:07;99530.75;;;17.40;100.00
49979;BME280;35869;50.990;6.962;2023-08-01T02:30:14;99534.09;;;17.32;100.00
49979;BME280;35869;50.990;6.962;2023-08-01T02:35:17;99537.44;;;17.24;100.00
49979;BME280;35869;50.990;6.962;2023-08-01T02:40:20;99527.03;;;17.23;100.00
49979;BME280;35869;50.990;6.962;2023-08-01T02:45:46;99529.41;;;17.26;100.00
49979;BME280;35869;50.990;6.962;2023-08-01T02:50:46;99534.50;;;17.18;100.00
49979;BME280;35869;50.990;6.962;2023-08-01T02:55:46;99540.72;;;17.17;100.00
49979;BME280;35869;50.990;6.962;2023-08-01T03:00:46;99539.38;;;17.13;100.00
49979;BME280;35869;50.990;6.962;2023-08-01T03:05:46;99536.34;;;17.08;100.00
49979;BME280;35869;50.990;6.962;2023-08-01T03:10:47;99547.66;;;16.98;100.00
49979;BME280;35869;50.990;6.962;2023-08-01T03:15:47;99554.13;;;17.04;100.00
49979;BME280;35869;50.990;6.962;2023-08-01T03:20:47;99558.72;;;17.02;100.00
49979;BME280;35869;50.990;6.962;2023-08-01T03:25:47;99559.94;;;16.98;100.00
49979;BME280;35869;50.990;6.962;2023-08-01T03:30:48;99569.88;;;16.94;100.00
49979;BME280;35869;50.990;6.962;2023-08-01T03:35:48;99573.34;;;16.95;100.00
49979;BME280;35869;50.990;6.962;2023-08-01T03:40:48;99582.47;;;16.91;100.00
49979;BME280;35869;50.990;6.962;2023-08-01T03:45:49;99589.66;;;16.89;100.00
49979;BME280;35869;50.990;6.962;2023-08-01T03:50:50;99592.28;;;16.89;100.00
49979;BME280;35869;50.990;6.962;2023-08-01T03:55:50;99602.06;;;16.77;100.00
49979;BME280;35869;50.990;6.962;2023-08-01T04:00:50;99597.34;;;16.81;100.00
49979;BME280;35869;50.990;6.962;2023-08-01T04:05:50;99607.81;;;16.71;100.00
49979;BME280;35869;50.990;6.962;2023-08-01T04:10:51;99601.31;;;16.65;100.00
49979;BME280;35869;50.990;6.962;2023-08-01T04:15:51;99601.16;;;16.67;100.00
49979;BME280;35869;50.990;6.962;2023-08-01T04:20:51;99606.22;;;16.59;100.00
49979;BME280;35869;50.990;6.962;2023-08-01T04:25:51;99603.59;;;16.59;100.00
49979;BME280;35869;50.990;6.962;2023-08-01T04:30:52;99600.59;;;16.53;100.00
49979;BME280;35869;50.990;6.962;2023-08-01T04:35:52;99610.19;;;16.43;100.00
49979;BME280;35869;50.990;6.962;2023-08-01T04:40:52;99616.28;;;16.44;100.00
49979;BME280;35869;50.990;6.962;2023-08-01T04:45:52;99619.97;;;16.41;100.00
49979;BME280;35869;50.990;6.962;2023-08-01T04:50:53;99633.63;;;16.35;100.00
49979;BME280;35869;50.990;6.962;2023-08-01T04:55:53;99647.00;;;16.32;100.00
49979;BME280;35869;50.990;6.962;2023-08-01T05:00:53;99643.81;;;16.29;100.00
49979;BME280;35869;50.990;6.962;2023-08-01T05:05:53;99637.03;;;16.26;100.00
49979;BME280;35869;50.990;6.962;2023-08-01T05:10:54;99640.19;;;16.20;100.00
49979;BME280;35869;50.990;6.962;2023-08-01T05:15:54;99627.47;;;16.15;100.00
49979;BME280;35869;50.990;6.962;2023-08-01T05:20:54;99627.06;;;16.20;100.00
49979;BME280;35869;50.990;6.962;2023-08-01T05:25:54;99638.78;;;16.16;100.00
49979;BME280;35869;50.990;6.962;2023-08-01T05:30:54;99637.25;;;16.13;100.00
49979;BME280;35869;50.990;6.962;2023-08-01T05:35:55;99653.69;;;16.15;100.00
49979;BME280;35869;50.990;6.962;2023-08-01T05:40:55;99663.25;;;16.05;100.00
49979;BME280;35869;50.990;6.962;2023-08-01T05:45:55;99669.75;;;16.01;100.00
49979;BME280;35869;50.990;6.962;2023-08-01T05:50:55;99683.91;;;15.98;100.00
49979;BME280;35869;50.990;6.962;2023-08-01T05:55:56;99683.69;;;16.02;100.00
49979;BME280;35869;50.990;6.962;2023-08-01T06:00:56;99691.78;;;15.98;100.00
49979;BME280;35869;50.990;6.962;2023-08-01T06:05:57;99691.91;;;15.97;100.00
49979;BME280;35869;50.990;6.962;2023-08-01T06:10:57;99691.78;;;15.98;100.00
49979;BME280;35869;50.990;6.962;2023-08-01T06:15:57;99690.81;;;15.99;100.00
49979;BME280;35869;50.990;6.962;2023-08-01T06:20:57;99679.25;;;16.02;100.00
49979;BME280;35869;50.990;6.962;2023-08-01T06:25:58;99688.19;;;15.99;100.00
49979;BME280;35869;50.990;6.962;2023-08-01T06:30:58;99692.22;;;16.04;100.00
49979;BME280;35869;50.990;6.962;2023-08-01T06:35:58;99682.44;;;16.06;100.00
49979;BME280;35869;50.990;6.962;2023-08-01T06:40:58;99695.03;;;16.12;100.00
49979;BME280;35869;50.990;6.962;2023-08-01T06:45:58;99694.34;;;16.10;100.00
49979;BME280;35869;50.990;6.962;2023-08-01T06:50:59;99693.69;;;16.17;100.00
49979;BME280;35869;50.990;6.962;2023-08-01T06:55:59;99700.28;;;16.12;100.00
49979;BME280;35869;50.990;6.962;2023-08-01T07:00:59;99699.75;;;16.18;100.00
49979;BME280;35869;50.990;6.962;2023-08-01T07:06:00;99709.03;;;16.22;100.00
49979;BME280;35869;50.990;6.962;2023-08-01T07:11:01;99706.19;;;16.25;100.00
49979;BME280;35869;50.990;6.962;2023-08-01T07:16:02;99712.50;;;16.22;100.00
49979;BME280;35869;50.990;6.962;2023-08-01T07:21:03;99713.06;;;16.26;100.00
49979;BME280;35869;50.990;6.962;2023-08-01T07:26:04;99715.56;;;16.27;100.00
49979;BME280;35869;50.990;6.962;2023-08-01T07:31:06;99717.22;;;16.29;100.00
49979;BME280;35869;50.990;6.962;2023-08-01T07:36:06;99712.44;;;16.34;100.00
49979;BME280;35869;50.990;6.962;2023-08-01T07:41:07;99715.50;;;16.39;100.00
49979;BME280;35869;50.990;6.962;2023-08-01T07:46:07;99721.50;;;16.50;100.00
49979;BME280;35869;50.990;6.962;2023-08-01T07:51:07;99724.34;;;16.47;100.00
49979;BME280;35869;50.990;6.962;2023-08-01T07:56:08;99730.88;;;16.53;100.00
49979;BME280;35869;50.990;6.962;2023-08-01T08:01:08;99723.94;;;16.42;100.00
49979;BME280;35869;50.990;6.962;2023-08-01T08:06:08;99732.88;;;16.61;100.00
49979;BME280;35869;50.990;6.962;2023-08-01T08:11:09;99732.97;;;16.59;100.00
49979;BME280;35869;50.990;6.962;2023-08-01T08:16:10;99738.22;;;16.80;100.00
49979;BME280;35869;50.990;6.962;2023-08-01T08:21:10;99739.06;;;16.81;100.00
49979;BME280;35869;50.990;6.962;2023-08-01T08:26:11;99736.88;;;16.86;100.00
49979;BME280;35869;50.990;6.962;2023-08-01T08:31:11;99746.53;;;16.85;100.00
49979;BME280;35869;50.990;6.962;2023-08-01T08:36:11;99741.28;;;16.85;100.00
49979;BME280;35869;50.990;6.962;2023-08-01T08:41:20;99749.56;;;16.81;100.00
49979;BME280;35869;50.990;6.962;2023-08-01T08:46:21;99743.13;;;16.94;100.00
49979;BME280;35869;50.990;6.962;2023-08-01T08:51:26;99721.63;;;17.00;100.00
49979;BME280;35869;50.990;6.962;2023-08-01T08:56:28;99727.25;;;17.05;100.00
49979;BME280;35869;50.990;6.962;2023-08-01T09:01:28;99743.59;;;17.09;100.00
49979;BME280;35869;50.990;6.962;2023-08-01T09:06:32;99745.28;;;17.20;100.00
49979;BME280;35869;50.990;6.962;2023-08-01T09:11:41;99762.75;;;17.30;100.00
49979;BME280;35869;50.990;6.962;2023-08-01T09:16:43;99761.09;;;17.39;100.00
49979;BME280;35869;50.990;6.962;2023-08-01T09:21:43;99761.38;;;17.36;100.00
49979;BME280;35869;50.990;6.962;2023-08-01T09:26:45;99768.88;;;17.60;100.00
49979;BME280;35869;50.990;6.962;2023-08-01T09:31:46;99766.38;;;17.68;100.00
49979;BME280;35869;50.990;6.962;2023-08-01T09:36:46;99762.94;;;17.68;100.00
49979;BME280;35869;50.990;6.962;2023-08-01T09:41:57;99764.78;;;17.77;100.00
49979;BME280;35869;50.990;6.962;2023-08-01T09:47:00;99760.91;;;17.91;100.00
49979;BME280;35869;50.990;6.962;2023-08-01T09:52:01;99770.75;;;17.89;100.00
49979;BME280;35869;50.990;6.962;2023-08-01T09:57:02;99765.19;;;17.92;100.00
49979;BME280;35869;50.990;6.962;2023-08-01T10:02:05;99756.84;;;18.35;100.00
49979;BME280;35869;50.990;6.962;2023-08-01T10:07:13;99762.75;;;18.56;100.00
49979;BME280;35869;50.990;6.962;2023-08-01T10:12:17;99752.56;;;18.44;100.00
49979;BME280;35869;50.990;6.962;2023-08-01T10:17:23;99755.75;;;18.37;100.00
49979;BME280;35869;50.990;6.962;2023-08-01T10:22:25;99762.09;;;18.54;100.00
49979;BME280;35869;50.990;6.962;2023-08-01T10:27:26;99756.78;;;18.74;100.00
49979;BME280;35869;50.990;6.962;2023-08-01T10:32:32;99757.19;;;18.79;100.00
49979;BME280;35869;50.990;6.962;2023-08-01T10:37:40;99752.72;;;18.89;100.00
49979;BME280;35869;50.990;6.962;2023-08-01T10:42:42;99752.59;;;19.18;100.00
49979;BME280;35869;50.990;6.962;2023-08-01T10:47:42;99749.22;;;19.26;100.00
49979;BME280;35869;50.990;6.962;2023-08-01T10:52:43;99753.75;;;19.51;100.00
49979;BME280;35869;50.990;6.962;2023-08-01T10:57:48;99748.97;;;19.47;97.95
49979;BME280;35869;50.990;6.962;2023-08-01T11:02:51;99758.34;;;19.59;97.91
49979;BME280;35869;50.990;6.962;2023-08-01T11:08:02;99757.50;;;20.12;96.89
49979;BME280;35869;50.990;6.962;2023-08-01T11:13:02;99765.78;;;19.99;95.38
49979;BME280;35869;50.990;6.962;2023-08-01T11:18:03;99762.88;;;20.46;94.08
49979;BME280;35869;50.990;6.962;2023-08-01T11:23:04;99760.28;;;19.92;92.63
49979;BME280;35869;50.990;6.962;2023-08-01T11:28:10;99769.78;;;20.03;93.52
49979;BME280;35869;50.990;6.962;2023-08-01T11:33:19;99769.50;;;19.88;89.26
49979;BME280;35869;50.990;6.962;2023-08-01T11:38:21;99768.44;;;20.43;91.24
49979;BME280;35869;50.990;6.962;2023-08-01T11:43:21;99763.25;;;21.11;88.27
49979;BME280;35869;50.990;6.962;2023-08-01T11:48:22;99771.19;;;21.11;89.16
49979;BME280;35869;50.990;6.962;2023-08-01T11:53:23;99759.00;;;21.26;88.89
49979;BME280;35869;50.990;6.962;2023-08-01T11:58:30;99756.44;;;21.43;88.01
49979;BME280;35869;50.990;6.962;2023-08-01T12:03:31;99768.00;;;20.99;84.32
49979;BME280;35869;50.990;6.962;2023-08-01T12:08:31;99762.69;;;21.34;84.32
49979;BME280;35869;50.990;6.962;2023-08-01T12:13:32;99769.03;;;21.57;80.71
49979;BME280;35869;50.990;6.962;2023-08-01T12:18:32;99778.53;;;22.08;81.15
49979;BME280;35869;50.990;6.962;2023-08-01T12:23:32;99773.94;;;21.36;82.00
49979;BME280;35869;50.990;6.962;2023-08-01T12:28:32;99800.50;;;21.76;83.57
49979;BME280;35869;50.990;6.962;2023-08-01T12:33:33;99786.00;;;22.05;82.21
49979;BME280;35869;50.990;6.962;2023-08-01T12:38:33;99816.22;;;21.94;83.37
49979;BME280;35869;50.990;6.962;2023-08-01T12:43:33;99845.56;;;21.59;86.11
49979;BME280;35869;50.990;6.962;2023-08-01T12:48:34;99856.63;;;21.54;91.45
49979;BME280;35869;50.990;6.962;2023-08-01T12:53:34;99850.50;;;21.53;92.95
49979;BME280;35869;50.990;6.962;2023-08-01T12:58:34;99847.50;;;21.40;94.68
49979;BME280;35869;50.990;6.962;2023-08-01T13:03:35;99843.72;;;21.51;93.48
49979;BME280;35869;50.990;6.962;2023-08-01T13:08:35;99846.06;;;21.28;96.12
49979;BME280;35869;50.990;6.962;2023-08-01T13:13:35;99841.94;;;21.25;95.84
49979;BME280;35869;50.990;6.962;2023-08-01T13:18:35;99843.69;;;21.43;93.57
49979;BME280;35869;50.990;6.962;2023-08-01T13:23:35;99835.09;;;21.15;95.16
49979;BME280;35869;50.990;6.962;2023-08-01T13:28:36;99842.22;;;20.88;96.34
49979;BME280;35869;50.990;6.962;2023-08-01T13:33:36;99830.88;;;20.96;96.01
49979;BME280;35869;50.990;6.962;2023-08-01T13:38:36;99840.41;;;20.89;97.17
49979;BME280;35869;50.990;6.962;2023-08-01T13:43:36;99836.94;;;21.22;87.34
49979;BME280;35869;50.990;6.962;2023-08-01T13:48:37;99837.63;;;21.24;83.11
49979;BME280;35869;50.990;6.962;2023-08-01T13:53:37;99851.31;;;20.68;93.69
49979;BME280;35869;50.990;6.962;2023-08-01T13:59:08;99842.09;;;20.98;83.94
49979;BME280;35869;50.990;6.962;2023-08-01T14:04:08;99848.00;;;20.92;93.12
49979;BME280;35869;50.990;6.962;2023-08-01T14:09:09;99845.50;;;20.82;91.91
49979;BME280;35869;50.990;6.962;2023-08-01T14:14:09;99842.16;;;20.80;95.17
49979;BME280;35869;50.990;6.962;2023-08-01T14:19:09;99849.22;;;20.71;95.82
49979;BME280;35869;50.990;6.962;2023-08-01T14:24:30;99834.13;;;20.90;92.96
49979;BME280;35869;50.990;6.962;2023-08-01T14:29:30;99881.59;;;20.56;98.49
49979;BME280;35869;50.990;6.962;2023-08-01T14:34:30;99884.81;;;20.32;97.48
49979;BME280;35869;50.990;6.962;2023-08-01T14:39:30;99876.22;;;20.12;98.49
49979;BME280;35869;50.990;6.962;2023-08-01T14:44:30;99873.22;;;20.24;98.86
49979;BME280;35869;50.990;6.962;2023-08-01T14:49:31;99873.00;;;20.18;100.00
49979;BME280;35869;50.990;6.962;2023-08-01T14:54:31;99871.41;;;20.43;98.34
49979;BME280;35869;50.990;6.962;2023-08-01T14:59:31;99878.94;;;20.38;99.82
49979;BME280;35869;50.990;6.962;2023-08-01T15:04:32;99871.69;;;20.04;100.00
49979;BME280;35869;50.990;6.962;2023-08-01T15:09:32;99873.19;;;19.89;99.75
49979;BME280;35869;50.990;6.962;2023-08-01T15:14:32;99870.34;;;19.73;98.00
49979;BME280;35869;50.990;6.962;2023-08-01T15:19:32;99872.75;;;19.93;98.91
49979;BME280;35869;50.990;6.962;2023-08-01T15:24:33;99881.00;;;19.81;97.48
49979;BME280;35869;50.990;6.962;2023-08-01T15:29:33;99875.00;;;19.88;93.28
49979;BME280;35869;50.990;6.962;2023-08-01T15:34:33;99873.31;;;19.87;95.72
49979;BME280;35869;50.990;6.962;2023-08-01T15:39:33;99883.91;;;19.40;92.85
49979;BME280;35869;50.990;6.962;2023-08-01T15:44:33;99888.81;;;19.73;89.40
49979;BME280;35869;50.990;6.962;2023-08-01T15:49:34;99881.44;;;19.39;95.54
49979;BME280;35869;50.990;6.962;2023-08-01T15:54:34;99882.41;;;19.38;92.51
49979;BME280;35869;50.990;6.962;2023-08-01T15:59:34;99887.91;;;19.54;88.30
49979;BME280;35869;50.990;6.962;2023-08-01T16:04:34;99881.94;;;19.52;93.65
49979;BME280;35869;50.990;6.962;2023-08-01T16:09:35;99904.09;;;19.32;93.35
49979;BME280;35869;50.990;6.962;2023-08-01T16:14:35;99900.31;;;19.34;92.87
49979;BME280;35869;50.990;6.962;2023-08-01T16:19:35;99907.00;;;19.29;92.46
49979;BME280;35869;50.990;6.962;2023-08-01T16:24:35;99909.81;;;19.17;94.94
49979;BME280;35869;50.990;6.962;2023-08-01T16:29:35;99914.59;;;19.41;90.77
49979;BME280;35869;50.990;6.962;2023-08-01T16:34:35;99914.78;;;19.30;91.59
49979;BME280;35869;50.990;6.962;2023-08-01T16:39:36;99916.34;;;19.13;89.60
49979;BME280;35869;50.990;6.962;2023-08-01T16:44:36;99919.66;;;19.15;89.91
49979;BME280;35869;50.990;6.962;2023-08-01T16:49:36;99921.38;;;19.44;87.37
49979;BME280;35869;50.990;6.962;2023-08-01T16:54:37;99924.59;;;19.38;85.37
49979;BME280;35869;50.990;6.962;2023-08-01T16:59:38;99933.50;;;19.27;84.87
49979;BME280;35869;50.990;6.962;2023-08-01T17:04:39;99930.44;;;19.22;88.51
49979;BME280;35869;50.990;6.962;2023-08-01T17:09:39;99941.25;;;19.29;90.03
49979;BME280;35869;50.990;6.962;2023-08-01T17:14:39;99948.03;;;19.41;86.90
49979;BME280;35869;50.990;6.962;2023-08-01T17:19:40;99949.44;;;19.26;91.58
49979;BME280;35869;50.990;6.962;2023-08-01T17:24:40;99953.06;;;19.25;85.14
49979;BME280;35869;50.990;6.962;2023-08-01T17:29:41;99954.97;;;19.32;84.60
49979;BME280;35869;50.990;6.962;2023-08-01T17:34:41;99970.00;;;18.93;89.96
49979;BME280;35869;50.990;6.962;2023-08-01T17:39:42;99982.47;;;19.10;88.35
49979;BME280;35869;50.990;6.962;2023-08-01T17:44:42;99975.69;;;19.08;86.26
49979;BME280;35869;50.990;6.962;2023-08-01T17:49:42;99987.47;;;19.13;90.75
49979;BME280;35869;50.990;6.962;2023-08-01T17:54:42;99991.34;;;18.80;86.70
49979;BME280;35869;50.990;6.962;2023-08-01T17:59:42;100000.78;;;18.92;83.41
49979;BME280;35869;50.990;6.962;2023-08-01T18:04:43;100003.44;;;18.83;88.15
49979;BME280;35869;50.990;6.962;2023-08-01T18:09:43;100007.69;;;18.94;88.71
49979;BME280;35869;50.990;6.962;2023-08-01T18:14:43;100000.34;;;18.87;89.52
49979;BME280;35869;50.990;6.962;2023-08-01T18:19:43;99995.22;;;18.86;88.20
49979;BME280;35869;50.990;6.962;2023-08-01T18:24:44;100007.69;;;18.64;91.86
49979;BME280;35869;50.990;6.962;2023-08-01T18:29:44;100003.34;;;18.63;89.95
49979;BME280;35869;50.990;6.962;2023-08-01T18:34:44;100014.84;;;18.43;92.50
49979;BME280;35869;50.990;6.962;2023-08-01T18:39:44;100011.81;;;18.57;92.29
49979;BME280;35869;50.990;6.962;2023-08-01T18:44:44;100016.78;;;18.51;93.65
49979;BME280;35869;50.990;6.962;2023-08-01T18:49:45;100024.81;;;18.49;90.12
49979;BME280;35869;50.990;6.962;2023-08-01T18:54:49;100025.38;;;18.43;93.50
49979;BME280;35869;50.990;6.962;2023-08-01T18:59:50;100027.84;;;18.45;93.82
49979;BME280;35869;50.990;6.962;2023-08-01T19:04:50;100037.94;;;18.39;92.51
49979;BME280;35869;50.990;6.962;2023-08-01T19:09:50;100053.44;;;18.33;94.06
49979;BME280;35869;50.990;6.962;2023-08-01T19:14:51;100066.53;;;18.14;93.02
49979;BME280;35869;50.990;6.962;2023-08-01T19:19:51;100079.72;;;17.93;96.20
49979;BME280;35869;50.990;6.962;2023-08-01T19:24:52;100086.69;;;18.03;93.68
49979;BME280;35869;50.990;6.962;2023-08-01T19:29:52;100076.16;;;18.03;95.25
49979;BME280;35869;50.990;6.962;2023-08-01T19:34:53;100089.22;;;18.15;94.79
49979;BME280;35869;50.990;6.962;2023-08-01T19:39:53;100091.53;;;17.77;98.86
49979;BME280;35869;50.990;6.962;2023-08-01T19:44:53;100097.16;;;17.94;98.75
49979;BME280;35869;50.990;6.962;2023-08-01T19:49:53;100102.06;;;17.77;99.93
49979;BME280;35869;50.990;6.962;2023-08-01T19:54:54;100107.81;;;17.71;100.00
49979;BME280;35869;50.990;6.962;2023-08-01T19:59:54;100112.22;;;17.71;100.00
49979;BME280;35869;50.990;6.962;2023-08-01T20:04:54;100120.50;;;17.66;100.00
49979;BME280;35869;50.990;6.962;2023-08-01T20:09:54;100117.13;;;17.64;100.00
49979;BME280;35869;50.990;6.962;2023-08-01T20:14:55;100116.81;;;17.57;100.00
49979;BME280;35869;50.990;6.962;2023-08-01T20:19:56;100117.41;;;17.61;100.00
49979;BME280;35869;50.990;6.962;2023-08-01T20:24:56;100126.75;;;17.54;100.00
49979;BME280;35869;50.990;6.962;2023-08-01T20:29:56;100111.75;;;17.45;100.00
49979;BME280;35869;50.990;6.962;2023-08-01T20:34:56;100114.25;;;17.46;100.00
49979;BME280;35869;50.990;6.962;2023-08-01T20:39:57;100118.66;;;17.46;100.00
49979;BME280;35869;50.990;6.962;2023-08-01T20:44:57;100108.53;;;17.41;100.00
49979;BME280;35869;50.990;6.962;2023-08-01T20:49:57;100105.47;;;17.36;100.00
49979;BME280;35869;50.990;6.962;2023-08-01T20:54:58;100103.78;;;17.35;100.00
49979;BME280;35869;50.990;6.962;2023-08-01T20:59:58;100105.00;;;17.31;100.00
49979;BME280;35869;50.990;6.962;2023-08-01T21:04:58;100095.56;;;17.28;100.00
49979;BME280;35869;50.990;6.962;2023-08-01T21:09:58;100090.72;;;17.24;100.00
49979;BME280;35869;50.990;6.962;2023-08-01T21:14:59;100087.63;;;17.19;100.00
49979;BME280;35869;50.990;6.962;2023-08-01T21:19:59;100081.41;;;17.20;100.00
49979;BME280;35869;50.990;6.962;2023-08-01T21:24:59;100080.13;;;17.14;100.00
49979;BME280;35869;50.990;6.962;2023-08-01T21:29:59;100075.00;;;17.13;100.00
49979;BME280;35869;50.990;6.962;2023-08-01T21:34:59;100064.88;;;17.08;100.00
49979;BME280;35869;50.990;6.962;2023-08-01T21:40:00;100067.88;;;17.03;100.00
49979;BME280;35869;50.990;6.962;2023-08-01T21:45:00;100070.50;;;17.03;100.00
49979;BME280;35869;50.990;6.962;2023-08-01T21:50:00;100076.00;;;17.00;100.00
49979;BME280;35869;50.990;6.962;2023-08-01T21:55:00;100071.69;;;16.99;100.00
49979;BME280;35869;50.990;6.962;2023-08-01T22:00:01;100060.72;;;16.94;100.00
49979;BME280;35869;50.990;6.962;2023-08-01T22:05:01;100065.97;;;16.94;100.00
49979;BME280;35869;50.990;6.962;2023-08-01T22:10:02;100053.00;;;16.93;100.00
49979;BME280;35869;50.990;6.962;2023-08-01T22:15:03;100062.66;;;16.92;100.00
49979;BME280;35869;50.990;6.962;2023-08-01T22:20:03;100061.00;;;16.91;100.00
49979;BME280;35869;50.990;6.962;2023-08-01T22:25:04;100060.31;;;16.89;100.00
49979;BME280;35869;50.990;6.962;2023-08-01T22:30:05;100049.06;;;16.87;100.00
49979;BME280;35869;50.990;6.962;2023-08-01T22:35:06;100045.75;;;16.85;100.00
49979;BME280;35869;50.990;6.962;2023-08-01T22:40:06;100034.97;;;16.88;100.00
49979;BME280;35869;50.990;6.962;2023-08-01T22:45:07;100035.13;;;16.87;100.00
49979;BME280;35869;50.990;6.962;2023-08-01T22:50:08;100034.66;;;16.82;100.00
49979;BME280;35869;50.990;6.962;2023-08-01T22:55:09;100030.13;;;16.84;100.00
49979;BME280;35869;50.990;6.962;2023-08-01T23:00:10;100018.81;;;16.83;100.00
49979;BME280;35869;50.990;6.962;2023-08-01T23:05:10;100009.25;;;16.82;100.00
49979;BME280;35869;50.990;6.962;2023-08-01T23:10:11;100007.72;;;16.79;100.00
49979;BME280;35869;50.990;6.962;2023-08-01T23:15:11;100010.56;;;16.76;100.00
49979;BME280;35869;50.990;6.962;2023-08-01T23:20:11;100010.69;;;16.75;100.00
49979;BME280;35869;50.990;6.962;2023-08-01T23:25:12;100016.78;;;16.75;100.00
49979;BME280;35869;50.990;6.962;2023-08-01T23:30:12;100019.53;;;16.74;100.00
49979;BME280;35869;50.990;6.962;2023-08-01T23:35:12;100017.16;;;16.71;100.00
49979;BME280;35869;50.990;6.962;2023-08-01T23:40:12;100005.81;;;16.70;100.00
49979;BME280;35869;50.990;6.962;2023-08-01T23:45:13;99999.00;;;16.68;100.00
49979;BME280;35869;50.990;6.962;2023-08-01T23:50:13;100001.88;;;16.65;100.00
49979;BME280;35869;50.990;6.962;2023-08-01T23:55:14;99994.97;;;16.64;100.00
